sensor_id;sensor_type;location;lat;lon;timestamp;P1;durP1;ratioP1;P2;durP2;ratioP2
63110;SDS011;49201;53.426;10.300;2023-04-03T00:02:04;4.97;;;1.87;;
63110;SDS011;49201;53.426;10.300;2023-04-03T00:04:30;5.53;;;2.10;;
63110;SDS011;49201;53.426;10.300;2023-04-03T00:06:55;6.90;;;2.17;;
63110;SDS011;49201;53.426;10.300;2023-04-03T00:09:21;6.00;;;1.93;;
63110;SDS011;49201;53.426;10.300;2023-04-03T00:11:46;5.33;;;1.80;;
63110;SDS011;49201;53.426;10.300;2023-04-03T00:14:11;4.30;;;2.10;;
63110;SDS011;49201;53.426;10.300;2023-04-03T00:16:37;6.67;;;2.00;;
63110;SDS011;49201;53.426;10.300;2023-04-03T00:19:02;4.63;;;2.13;;
63110;SDS011;49201;53.426;10.300;2023-04-03T00:21:28;6.07;;;2.00;;
63110;SDS011;49201;53.426;10.300;2023-04-03T00:23:53;6.43;;;2.20;;
63110;SDS011;49201;53.426;10.300;2023-04-03T00:26:19;8.43;;;2.53;;
63110;SDS011;49201;53.426;10.300;2023-04-03T00:28:45;10.27;;;2.30;;
63110;SDS011;49201;53.426;10.300;2023-04-03T00:31:13;5.00;;;2.40;;
63110;SDS011;49201;53.426;10.300;2023-04-03T00:33:40;6.80;;;2.17;;
63110;SDS011;49201;53.426;10.300;2023-04-03T00:36:07;8.57;;;2.23;;
63110;SDS011;49201;53.426;10.300;2023-04-03T00:38:36;6.33;;;2.33;;
63110;SDS011;49201;53.426;10.300;2023-04-03T00:41:02;6.13;;;1.90;;
63110;SDS011;49201;53.426;10.300;2023-04-03T00:43:27;9.47;;;2.10;;
63110;SDS011;49201;53.426;10.300;2023-04-03T00:45:57;6.67;;;2.20;;
63110;SDS011;49201;53.426;10.300;2023-04-03T00:48:26;6.53;;;1.83;;
63110;SDS011;49201;53.426;10.300;2023-04-03T00:50:56;6.30;;;2.23;;
63110;SDS011;49201;53.426;10.300;2023-04-03T00:53:23;10.83;;;2.47;;
63110;SDS011;49201;53.426;10.300;2023-04-03T00:55:52;5.53;;;1.80;;
63110;SDS011;49201;53.426;10.300;2023-04-03T00:58:21;7.07;;;2.30;;
63110;SDS011;49201;53.426;10.300;2023-04-03T01:00:57;7.77;;;2.40;;
63110;SDS011;49201;53.426;10.300;2023-04-03T01:03:23;6.37;;;2.40;;
63110;SDS011;49201;53.426;10.300;2023-04-03T01:05:50;8.97;;;2.20;;
63110;SDS011;49201;53.426;10.300;2023-04-03T01:08:16;6.97;;;2.17;;
63110;SDS011;49201;53.426;10.300;2023-04-03T01:10:42;6.17;;;2.43;;
63110;SDS011;49201;53.426;10.300;2023-04-03T01:13:21;3.23;;;1.97;;
63110;SDS011;49201;53.426;10.300;2023-04-03T01:15:49;7.40;;;2.00;;
63110;SDS011;49201;53.426;10.300;2023-04-03T01:18:15;6.20;;;2.13;;
63110;SDS011;49201;53.426;10.300;2023-04-03T01:20:44;5.97;;;2.00;;
63110;SDS011;49201;53.426;10.300;2023-04-03T01:26:23;9.27;;;2.40;;
63110;SDS011;49201;53.426;10.300;2023-04-03T01:28:50;4.67;;;2.23;;
63110;SDS011;49201;53.426;10.300;2023-04-03T01:31:26;8.40;;;2.20;;
63110;SDS011;49201;53.426;10.300;2023-04-03T01:33:54;8.70;;;2.10;;
63110;SDS011;49201;53.426;10.300;2023-04-03T01:36:24;9.33;;;2.27;;
63110;SDS011;49201;53.426;10.300;2023-04-03T01:38:53;6.70;;;1.93;;
63110;SDS011;49201;53.426;10.300;2023-04-03T01:41:19;4.47;;;1.90;;
63110;SDS011;49201;53.426;10.300;2023-04-03T01:43:47;7.03;;;2.30;;
63110;SDS011;49201;53.426;10.300;2023-04-03T01:46:13;11.30;;;2.23;;
63110;SDS011;49201;53.426;10.300;2023-04-03T01:48:40;8.93;;;1.90;;
63110;SDS011;49201;53.426;10.300;2023-04-03T01:51:06;6.53;;;2.20;;
63110;SDS011;49201;53.426;10.300;2023-04-03T01:53:31;7.90;;;2.27;;
63110;SDS011;49201;53.426;10.300;2023-04-03T01:55:57;6.87;;;2.20;;
63110;SDS011;49201;53.426;10.300;2023-04-03T01:58:23;5.63;;;1.80;;
63110;SDS011;49201;53.426;10.300;2023-04-03T02:00:50;4.20;;;1.83;;
63110;SDS011;49201;53.426;10.300;2023-04-03T02:03:16;7.73;;;1.90;;
63110;SDS011;49201;53.426;10.300;2023-04-03T02:05:42;5.77;;;2.13;;
63110;SDS011;49201;53.426;10.300;2023-04-03T02:08:07;7.30;;;2.70;;
63110;SDS011;49201;53.426;10.300;2023-04-03T02:10:33;6.53;;;1.90;;
63110;SDS011;49201;53.426;10.300;2023-04-03T02:12:59;6.10;;;2.13;;
63110;SDS011;49201;53.426;10.300;2023-04-03T02:15:24;6.40;;;2.60;;
63110;SDS011;49201;53.426;10.300;2023-04-03T02:17:50;9.57;;;2.00;;
63110;SDS011;49201;53.426;10.300;2023-04-03T02:20:16;5.57;;;2.00;;
63110;SDS011;49201;53.426;10.300;2023-04-03T02:22:42;6.30;;;1.90;;
63110;SDS011;49201;53.426;10.300;2023-04-03T02:25:08;5.20;;;1.83;;
63110;SDS011;49201;53.426;10.300;2023-04-03T02:27:35;9.10;;;2.23;;
63110;SDS011;49201;53.426;10.300;2023-04-03T02:30:01;4.53;;;1.80;;
63110;SDS011;49201;53.426;10.300;2023-04-03T02:32:28;5.53;;;1.80;;
63110;SDS011;49201;53.426;10.300;2023-04-03T02:34:53;7.47;;;1.97;;
63110;SDS011;49201;53.426;10.300;2023-04-03T02:37:19;6.47;;;2.30;;
63110;SDS011;49201;53.426;10.300;2023-04-03T02:39:45;7.77;;;1.77;;
63110;SDS011;49201;53.426;10.300;2023-04-03T02:42:11;6.17;;;2.17;;
63110;SDS011;49201;53.426;10.300;2023-04-03T02:44:37;7.70;;;2.13;;
63110;SDS011;49201;53.426;10.300;2023-04-03T02:47:04;5.10;;;1.60;;
63110;SDS011;49201;53.426;10.300;2023-04-03T02:49:29;6.70;;;1.97;;
63110;SDS011;49201;53.426;10.300;2023-04-03T02:51:55;6.67;;;2.30;;
63110;SDS011;49201;53.426;10.300;2023-04-03T02:54:20;5.53;;;1.83;;
63110;SDS011;49201;53.426;10.300;2023-04-03T02:56:50;5.63;;;2.07;;
63110;SDS011;49201;53.426;10.300;2023-04-03T02:59:16;7.03;;;2.23;;
63110;SDS011;49201;53.426;10.300;2023-04-03T03:01:42;3.90;;;2.10;;
63110;SDS011;49201;53.426;10.300;2023-04-03T03:04:07;8.17;;;2.10;;
63110;SDS011;49201;53.426;10.300;2023-04-03T03:06:33;6.80;;;1.93;;
63110;SDS011;49201;53.426;10.300;2023-04-03T03:08:58;8.17;;;1.90;;
63110;SDS011;49201;53.426;10.300;2023-04-03T03:11:24;6.83;;;2.07;;
63110;SDS011;49201;53.426;10.300;2023-04-03T03:13:50;6.20;;;2.07;;
63110;SDS011;49201;53.426;10.300;2023-04-03T03:16:16;7.37;;;1.77;;
63110;SDS011;49201;53.426;10.300;2023-04-03T03:18:41;8.13;;;1.90;;
63110;SDS011;49201;53.426;10.300;2023-04-03T03:21:06;6.03;;;1.90;;
63110;SDS011;49201;53.426;10.300;2023-04-03T03:23:35;8.27;;;2.03;;
63110;SDS011;49201;53.426;10.300;2023-04-03T03:26:01;5.67;;;1.80;;
63110;SDS011;49201;53.426;10.300;2023-04-03T03:28:29;9.47;;;2.00;;
63110;SDS011;49201;53.426;10.300;2023-04-03T03:30:56;7.03;;;1.60;;
63110;SDS011;49201;53.426;10.300;2023-04-03T03:33:23;7.57;;;2.03;;
63110;SDS011;49201;53.426;10.300;2023-04-03T03:35:50;6.20;;;2.00;;
63110;SDS011;49201;53.426;10.300;2023-04-03T03:38:16;6.97;;;2.07;;
63110;SDS011;49201;53.426;10.300;2023-04-03T03:40:41;6.83;;;2.20;;
63110;SDS011;49201;53.426;10.300;2023-04-03T03:43:07;5.13;;;2.03;;
63110;SDS011;49201;53.426;10.300;2023-04-03T03:45:32;4.07;;;1.53;;
63110;SDS011;49201;53.426;10.300;2023-04-03T03:47:58;7.43;;;1.77;;
63110;SDS011;49201;53.426;10.300;2023-04-03T03:50:24;5.97;;;1.87;;
63110;SDS011;49201;53.426;10.300;2023-04-03T03:52:49;5.43;;;1.80;;
63110;SDS011;49201;53.426;10.300;2023-04-03T03:55:16;5.77;;;1.60;;
63110;SDS011;49201;53.426;10.300;2023-04-03T03:57:41;4.33;;;1.70;;
63110;SDS011;49201;53.426;10.300;2023-04-03T04:00:07;6.67;;;2.40;;
63110;SDS011;49201;53.426;10.300;2023-04-03T04:02:40;6.80;;;1.93;;
63110;SDS011;49201;53.426;10.300;2023-04-03T04:05:07;6.13;;;1.93;;
63110;SDS011;49201;53.426;10.300;2023-04-03T04:07:33;5.20;;;1.80;;
63110;SDS011;49201;53.426;10.300;2023-04-03T04:10:00;4.50;;;1.37;;
63110;SDS011;49201;53.426;10.300;2023-04-03T04:12:25;8.03;;;1.57;;
63110;SDS011;49201;53.426;10.300;2023-04-03T04:14:51;5.90;;;1.80;;
63110;SDS011;49201;53.426;10.300;2023-04-03T04:17:17;5.50;;;2.10;;
63110;SDS011;49201;53.426;10.300;2023-04-03T04:19:43;6.17;;;1.90;;
63110;SDS011;49201;53.426;10.300;2023-04-03T04:22:08;4.67;;;1.50;;
63110;SDS011;49201;53.426;10.300;2023-04-03T04:24:34;7.77;;;1.60;;
63110;SDS011;49201;53.426;10.300;2023-04-03T04:27:01;7.23;;;1.50;;
63110;SDS011;49201;53.426;10.300;2023-04-03T04:29:30;4.10;;;1.30;;
63110;SDS011;49201;53.426;10.300;2023-04-03T04:32:01;5.30;;;1.50;;
63110;SDS011;49201;53.426;10.300;2023-04-03T04:34:27;5.93;;;1.50;;
63110;SDS011;49201;53.426;10.300;2023-04-03T04:36:54;5.00;;;1.37;;
63110;SDS011;49201;53.426;10.300;2023-04-03T04:39:19;4.33;;;1.67;;
63110;SDS011;49201;53.426;10.300;2023-04-03T04:41:45;5.17;;;1.60;;
63110;SDS011;49201;53.426;10.300;2023-04-03T04:44:10;2.50;;;1.43;;
63110;SDS011;49201;53.426;10.300;2023-04-03T04:46:36;3.67;;;1.00;;
63110;SDS011;49201;53.426;10.300;2023-04-03T04:49:03;3.53;;;1.30;;
63110;SDS011;49201;53.426;10.300;2023-04-03T04:51:29;5.13;;;1.40;;
63110;SDS011;49201;53.426;10.300;2023-04-03T04:53:55;5.17;;;1.67;;
63110;SDS011;49201;53.426;10.300;2023-04-03T04:56:21;4.80;;;1.53;;
63110;SDS011;49201;53.426;10.300;2023-04-03T04:58:47;3.73;;;1.80;;
63110;SDS011;49201;53.426;10.300;2023-04-03T05:01:14;5.87;;;1.80;;
63110;SDS011;49201;53.426;10.300;2023-04-03T05:03:51;3.20;;;1.60;;
63110;SDS011;49201;53.426;10.300;2023-04-03T05:06:17;6.33;;;2.00;;
63110;SDS011;49201;53.426;10.300;2023-04-03T05:08:43;6.60;;;1.87;;
63110;SDS011;49201;53.426;10.300;2023-04-03T05:11:08;3.77;;;1.40;;
63110;SDS011;49201;53.426;10.300;2023-04-03T05:13:34;7.87;;;2.20;;
63110;SDS011;49201;53.426;10.300;2023-04-03T05:16:00;5.10;;;2.40;;
63110;SDS011;49201;53.426;10.300;2023-04-03T05:18:27;6.43;;;1.80;;
63110;SDS011;49201;53.426;10.300;2023-04-03T05:20:55;4.37;;;1.90;;
63110;SDS011;49201;53.426;10.300;2023-04-03T05:23:23;4.47;;;1.60;;
63110;SDS011;49201;53.426;10.300;2023-04-03T05:25:48;3.57;;;1.50;;
63110;SDS011;49201;53.426;10.300;2023-04-03T05:28:15;4.33;;;1.50;;
63110;SDS011;49201;53.426;10.300;2023-04-03T05:30:41;7.53;;;1.57;;
63110;SDS011;49201;53.426;10.300;2023-04-03T05:33:07;3.67;;;1.40;;
63110;SDS011;49201;53.426;10.300;2023-04-03T05:35:42;6.00;;;1.30;;
63110;SDS011;49201;53.426;10.300;2023-04-03T05:38:13;7.67;;;1.80;;
63110;SDS011;49201;53.426;10.300;2023-04-03T05:40:38;4.03;;;1.13;;
63110;SDS011;49201;53.426;10.300;2023-04-03T05:43:05;3.23;;;1.27;;
63110;SDS011;49201;53.426;10.300;2023-04-03T05:45:33;5.10;;;1.60;;
63110;SDS011;49201;53.426;10.300;2023-04-03T05:48:00;2.83;;;1.37;;
63110;SDS011;49201;53.426;10.300;2023-04-03T05:50:26;4.77;;;1.77;;
63110;SDS011;49201;53.426;10.300;2023-04-03T05:52:52;7.47;;;1.40;;
63110;SDS011;49201;53.426;10.300;2023-04-03T05:55:23;4.63;;;1.40;;
63110;SDS011;49201;53.426;10.300;2023-04-03T05:57:49;3.37;;;1.23;;
63110;SDS011;49201;53.426;10.300;2023-04-03T06:00:15;5.90;;;1.20;;
63110;SDS011;49201;53.426;10.300;2023-04-03T06:02:46;4.33;;;1.30;;
63110;SDS011;49201;53.426;10.300;2023-04-03T06:05:17;3.73;;;1.30;;
63110;SDS011;49201;53.426;10.300;2023-04-03T06:07:43;4.37;;;1.07;;
63110;SDS011;49201;53.426;10.300;2023-04-03T06:10:10;5.00;;;1.40;;
63110;SDS011;49201;53.426;10.300;2023-04-03T06:12:37;3.03;;;1.20;;
63110;SDS011;49201;53.426;10.300;2023-04-03T06:15:03;3.13;;;1.10;;
63110;SDS011;49201;53.426;10.300;2023-04-03T06:17:29;4.07;;;1.40;;
63110;SDS011;49201;53.426;10.300;2023-04-03T06:19:54;9.40;;;1.67;;
63110;SDS011;49201;53.426;10.300;2023-04-03T06:22:21;6.50;;;1.90;;
63110;SDS011;49201;53.426;10.300;2023-04-03T06:24:46;3.60;;;1.60;;
63110;SDS011;49201;53.426;10.300;2023-04-03T06:27:12;9.40;;;1.73;;
63110;SDS011;49201;53.426;10.300;2023-04-03T06:29:37;9.10;;;2.47;;
63110;SDS011;49201;53.426;10.300;2023-04-03T06:32:03;6.13;;;2.07;;
63110;SDS011;49201;53.426;10.300;2023-04-03T06:34:28;6.40;;;2.10;;
63110;SDS011;49201;53.426;10.300;2023-04-03T06:36:53;13.87;;;2.20;;
63110;SDS011;49201;53.426;10.300;2023-04-03T06:39:20;9.97;;;1.90;;
63110;SDS011;49201;53.426;10.300;2023-04-03T06:41:47;8.57;;;2.50;;
63110;SDS011;49201;53.426;10.300;2023-04-03T06:44:14;10.13;;;2.10;;
63110;SDS011;49201;53.426;10.300;2023-04-03T06:46:41;9.53;;;1.67;;
63110;SDS011;49201;53.426;10.300;2023-04-03T06:49:07;5.73;;;1.67;;
63110;SDS011;49201;53.426;10.300;2023-04-03T06:51:33;6.30;;;1.60;;
63110;SDS011;49201;53.426;10.300;2023-04-03T06:54:00;9.53;;;1.80;;
63110;SDS011;49201;53.426;10.300;2023-04-03T06:56:27;7.70;;;1.30;;
63110;SDS011;49201;53.426;10.300;2023-04-03T06:58:53;8.50;;;1.77;;
63110;SDS011;49201;53.426;10.300;2023-04-03T07:01:22;7.67;;;1.50;;
63110;SDS011;49201;53.426;10.300;2023-04-03T07:03:50;9.27;;;2.03;;
63110;SDS011;49201;53.426;10.300;2023-04-03T07:06:16;6.37;;;1.60;;
63110;SDS011;49201;53.426;10.300;2023-04-03T07:08:43;4.53;;;1.43;;
63110;SDS011;49201;53.426;10.300;2023-04-03T07:11:09;4.93;;;1.27;;
63110;SDS011;49201;53.426;10.300;2023-04-03T07:13:36;6.13;;;1.57;;
63110;SDS011;49201;53.426;10.300;2023-04-03T07:16:02;3.53;;;1.50;;
63110;SDS011;49201;53.426;10.300;2023-04-03T07:18:29;6.00;;;1.50;;
63110;SDS011;49201;53.426;10.300;2023-04-03T07:20:54;4.33;;;1.43;;
63110;SDS011;49201;53.426;10.300;2023-04-03T07:23:21;4.23;;;1.73;;
63110;SDS011;49201;53.426;10.300;2023-04-03T07:25:47;6.10;;;1.30;;
63110;SDS011;49201;53.426;10.300;2023-04-03T07:28:15;3.10;;;1.27;;
63110;SDS011;49201;53.426;10.300;2023-04-03T07:30:51;4.17;;;1.57;;
63110;SDS011;49201;53.426;10.300;2023-04-03T07:33:28;5.47;;;1.20;;
63110;SDS011;49201;53.426;10.300;2023-04-03T07:35:53;6.80;;;1.40;;
63110;SDS011;49201;53.426;10.300;2023-04-03T07:38:19;5.23;;;1.43;;
63110;SDS011;49201;53.426;10.300;2023-04-03T07:40:48;8.10;;;1.83;;
63110;SDS011;49201;53.426;10.300;2023-04-03T07:43:16;1.40;;;1.10;;
63110;SDS011;49201;53.426;10.300;2023-04-03T07:45:43;2.67;;;1.23;;
63110;SDS011;49201;53.426;10.300;2023-04-03T07:48:09;5.70;;;1.40;;
63110;SDS011;49201;53.426;10.300;2023-04-03T07:50:36;4.03;;;1.30;;
63110;SDS011;49201;53.426;10.300;2023-04-03T07:53:02;3.47;;;1.10;;
63110;SDS011;49201;53.426;10.300;2023-04-03T07:55:28;4.93;;;1.43;;
63110;SDS011;49201;53.426;10.300;2023-04-03T07:57:54;4.97;;;1.03;;
63110;SDS011;49201;53.426;10.300;2023-04-03T08:00:20;3.73;;;0.97;;
63110;SDS011;49201;53.426;10.300;2023-04-03T08:02:45;4.20;;;0.97;;
63110;SDS011;49201;53.426;10.300;2023-04-03T08:05:20;2.00;;;1.00;;
63110;SDS011;49201;53.426;10.300;2023-04-03T08:07:46;3.63;;;1.30;;
63110;SDS011;49201;53.426;10.300;2023-04-03T08:10:12;2.10;;;0.93;;
63110;SDS011;49201;53.426;10.300;2023-04-03T08:12:39;4.47;;;1.30;;
63110;SDS011;49201;53.426;10.300;2023-04-03T08:15:05;2.77;;;0.90;;
63110;SDS011;49201;53.426;10.300;2023-04-03T08:17:32;2.60;;;1.03;;
63110;SDS011;49201;53.426;10.300;2023-04-03T08:19:57;3.23;;;1.10;;
63110;SDS011;49201;53.426;10.300;2023-04-03T08:22:23;1.90;;;0.90;;
63110;SDS011;49201;53.426;10.300;2023-04-03T08:24:48;3.80;;;0.87;;
63110;SDS011;49201;53.426;10.300;2023-04-03T08:27:14;2.77;;;1.10;;
63110;SDS011;49201;53.426;10.300;2023-04-03T08:29:40;4.60;;;1.00;;
63110;SDS011;49201;53.426;10.300;2023-04-03T08:32:05;3.50;;;0.90;;
63110;SDS011;49201;53.426;10.300;2023-04-03T08:34:31;3.07;;;0.57;;
63110;SDS011;49201;53.426;10.300;2023-04-03T08:37:00;1.93;;;0.70;;
63110;SDS011;49201;53.426;10.300;2023-04-03T08:39:26;2.07;;;0.57;;
63110;SDS011;49201;53.426;10.300;2023-04-03T08:41:51;1.80;;;0.60;;
63110;SDS011;49201;53.426;10.300;2023-04-03T08:52:19;3.20;;;1.13;;
63110;SDS011;49201;53.426;10.300;2023-04-03T08:57:34;2.73;;;0.83;;
63110;SDS011;49201;53.426;10.300;2023-04-03T09:00:16;3.23;;;0.90;;
63110;SDS011;49201;53.426;10.300;2023-04-03T09:02:48;4.73;;;1.17;;
63110;SDS011;49201;53.426;10.300;2023-04-03T09:05:18;3.00;;;1.00;;
63110;SDS011;49201;53.426;10.300;2023-04-03T09:07:46;3.07;;;0.93;;
63110;SDS011;49201;53.426;10.300;2023-04-03T09:10:15;1.53;;;0.90;;
63110;SDS011;49201;53.426;10.300;2023-04-03T09:13:36;1.90;;;0.80;;
63110;SDS011;49201;53.426;10.300;2023-04-03T09:16:04;3.43;;;1.20;;
63110;SDS011;49201;53.426;10.300;2023-04-03T09:18:45;3.70;;;0.83;;
63110;SDS011;49201;53.426;10.300;2023-04-03T09:21:22;3.27;;;0.93;;
63110;SDS011;49201;53.426;10.300;2023-04-03T09:23:53;1.40;;;0.83;;
63110;SDS011;49201;53.426;10.300;2023-04-03T09:26:24;2.10;;;0.93;;
63110;SDS011;49201;53.426;10.300;2023-04-03T09:28:55;3.77;;;1.30;;
63110;SDS011;49201;53.426;10.300;2023-04-03T09:31:26;1.33;;;0.70;;
63110;SDS011;49201;53.426;10.300;2023-04-03T09:36:57;3.53;;;1.07;;
63110;SDS011;49201;53.426;10.300;2023-04-03T09:39:31;2.57;;;1.00;;
63110;SDS011;49201;53.426;10.300;2023-04-03T09:42:15;2.83;;;1.10;;
63110;SDS011;49201;53.426;10.300;2023-04-03T09:44:48;2.73;;;0.90;;
63110;SDS011;49201;53.426;10.300;2023-04-03T09:52:40;1.90;;;1.00;;
63110;SDS011;49201;53.426;10.300;2023-04-03T09:55:08;2.00;;;1.00;;
63110;SDS011;49201;53.426;10.300;2023-04-03T09:57:39;2.70;;;1.27;;
63110;SDS011;49201;53.426;10.300;2023-04-03T10:00:06;1.97;;;0.90;;
63110;SDS011;49201;53.426;10.300;2023-04-03T10:02:44;3.22;;;1.10;;
63110;SDS011;49201;53.426;10.300;2023-04-03T10:08:34;1.88;;;1.00;;
63110;SDS011;49201;53.426;10.300;2023-04-03T10:11:07;4.88;;;1.10;;
63110;SDS011;49201;53.426;10.300;2023-04-03T10:13:50;3.08;;;1.13;;
63110;SDS011;49201;53.426;10.300;2023-04-03T10:16:25;3.90;;;1.98;;
63110;SDS011;49201;53.426;10.300;2023-04-03T10:38:04;2.00;;;1.30;;
63110;SDS011;49201;53.426;10.300;2023-04-03T10:44:07;2.30;;;1.00;;
63110;SDS011;49201;53.426;10.300;2023-04-03T10:52:29;2.70;;;1.40;;
63110;SDS011;49201;53.426;10.300;2023-04-03T10:55:27;0.97;;;0.70;;
63110;SDS011;49201;53.426;10.300;2023-04-03T10:57:57;3.00;;;1.07;;
63110;SDS011;49201;53.426;10.300;2023-04-03T11:00:39;4.63;;;1.37;;
63110;SDS011;49201;53.426;10.300;2023-04-03T11:03:16;2.90;;;1.13;;
63110;SDS011;49201;53.426;10.300;2023-04-03T11:05:52;2.30;;;1.17;;
63110;SDS011;49201;53.426;10.300;2023-04-03T11:11:20;2.43;;;1.10;;
63110;SDS011;49201;53.426;10.300;2023-04-03T11:16:30;2.30;;;1.43;;
63110;SDS011;49201;53.426;10.300;2023-04-03T11:19:08;2.77;;;1.30;;
63110;SDS011;49201;53.426;10.300;2023-04-03T11:21:48;2.97;;;1.13;;
63110;SDS011;49201;53.426;10.300;2023-04-03T11:24:24;2.00;;;1.00;;
63110;SDS011;49201;53.426;10.300;2023-04-03T11:26:52;4.97;;;1.27;;
63110;SDS011;49201;53.426;10.300;2023-04-03T11:29:21;2.30;;;0.93;;
63110;SDS011;49201;53.426;10.300;2023-04-03T11:34:40;2.03;;;1.00;;
63110;SDS011;49201;53.426;10.300;2023-04-03T11:39:59;1.90;;;0.90;;
63110;SDS011;49201;53.426;10.300;2023-04-03T11:47:45;2.27;;;1.17;;
63110;SDS011;49201;53.426;10.300;2023-04-03T12:08:43;3.67;;;1.20;;
63110;SDS011;49201;53.426;10.300;2023-04-03T12:13:40;3.33;;;1.13;;
63110;SDS011;49201;53.426;10.300;2023-04-03T12:16:19;3.43;;;1.00;;
63110;SDS011;49201;53.426;10.300;2023-04-03T12:37:37;1.57;;;0.93;;
63110;SDS011;49201;53.426;10.300;2023-04-03T12:40:31;2.80;;;1.13;;
63110;SDS011;49201;53.426;10.300;2023-04-03T12:48:33;2.50;;;1.20;;
63110;SDS011;49201;53.426;10.300;2023-04-03T12:51:04;3.57;;;1.00;;
63110;SDS011;49201;53.426;10.300;2023-04-03T12:53:36;2.87;;;1.27;;
63110;SDS011;49201;53.426;10.300;2023-04-03T12:58:47;2.47;;;1.13;;
63110;SDS011;49201;53.426;10.300;2023-04-03T13:01:15;1.63;;;0.90;;
63110;SDS011;49201;53.426;10.300;2023-04-03T13:03:48;1.67;;;0.90;;
63110;SDS011;49201;53.426;10.300;2023-04-03T13:06:18;1.53;;;0.87;;
63110;SDS011;49201;53.426;10.300;2023-04-03T13:08:57;2.40;;;1.07;;
63110;SDS011;49201;53.426;10.300;2023-04-03T13:11:25;2.53;;;1.37;;
63110;SDS011;49201;53.426;10.300;2023-04-03T13:16:30;4.37;;;1.50;;
63110;SDS011;49201;53.426;10.300;2023-04-03T13:18:57;1.53;;;0.90;;
63110;SDS011;49201;53.426;10.300;2023-04-03T13:21:26;2.30;;;1.13;;
63110;SDS011;49201;53.426;10.300;2023-04-03T13:23:58;1.70;;;0.70;;
63110;SDS011;49201;53.426;10.300;2023-04-03T13:26:29;2.50;;;1.30;;
63110;SDS011;49201;53.426;10.300;2023-04-03T13:29:02;1.80;;;0.80;;
63110;SDS011;49201;53.426;10.300;2023-04-03T13:31:36;3.13;;;1.17;;
63110;SDS011;49201;53.426;10.300;2023-04-03T13:34:10;1.57;;;0.97;;
63110;SDS011;49201;53.426;10.300;2023-04-03T13:36:45;3.80;;;1.13;;
63110;SDS011;49201;53.426;10.300;2023-04-03T13:39:25;1.80;;;0.90;;
63110;SDS011;49201;53.426;10.300;2023-04-03T13:41:56;2.53;;;1.10;;
63110;SDS011;49201;53.426;10.300;2023-04-03T13:47:15;2.53;;;0.97;;
63110;SDS011;49201;53.426;10.300;2023-04-03T13:50:12;2.07;;;1.00;;
63110;SDS011;49201;53.426;10.300;2023-04-03T13:55:18;4.00;;;1.50;;
63110;SDS011;49201;53.426;10.300;2023-04-03T13:57:57;2.87;;;1.20;;
63110;SDS011;49201;53.426;10.300;2023-04-03T14:00:28;4.00;;;1.20;;
63110;SDS011;49201;53.426;10.300;2023-04-03T14:02:56;2.47;;;1.10;;
63110;SDS011;49201;53.426;10.300;2023-04-03T14:05:22;2.90;;;1.10;;
63110;SDS011;49201;53.426;10.300;2023-04-03T14:07:50;3.13;;;1.07;;
63110;SDS011;49201;53.426;10.300;2023-04-03T14:10:16;1.33;;;0.80;;
63110;SDS011;49201;53.426;10.300;2023-04-03T14:12:42;2.33;;;1.17;;
63110;SDS011;49201;53.426;10.300;2023-04-03T14:15:15;2.40;;;0.90;;
63110;SDS011;49201;53.426;10.300;2023-04-03T14:17:58;2.43;;;0.90;;
63110;SDS011;49201;53.426;10.300;2023-04-03T14:20:25;2.07;;;1.00;;
63110;SDS011;49201;53.426;10.300;2023-04-03T14:22:52;1.57;;;0.73;;
63110;SDS011;49201;53.426;10.300;2023-04-03T14:25:19;3.87;;;1.40;;
63110;SDS011;49201;53.426;10.300;2023-04-03T14:27:46;2.33;;;0.87;;
63110;SDS011;49201;53.426;10.300;2023-04-03T14:30:24;2.80;;;1.03;;
63110;SDS011;49201;53.426;10.300;2023-04-03T14:32:54;2.40;;;1.17;;
63110;SDS011;49201;53.426;10.300;2023-04-03T14:35:20;1.57;;;1.00;;
63110;SDS011;49201;53.426;10.300;2023-04-03T14:37:46;1.90;;;1.10;;
63110;SDS011;49201;53.426;10.300;2023-04-03T14:40:14;2.00;;;0.90;;
63110;SDS011;49201;53.426;10.300;2023-04-03T14:42:43;1.77;;;0.80;;
63110;SDS011;49201;53.426;10.300;2023-04-03T14:45:10;2.83;;;1.00;;
63110;SDS011;49201;53.426;10.300;2023-04-03T14:47:44;3.43;;;1.20;;
63110;SDS011;49201;53.426;10.300;2023-04-03T14:50:15;1.67;;;1.00;;
63110;SDS011;49201;53.426;10.300;2023-04-03T14:52:43;2.90;;;1.00;;
63110;SDS011;49201;53.426;10.300;2023-04-03T14:55:12;3.97;;;1.17;;
63110;SDS011;49201;53.426;10.300;2023-04-03T14:57:40;2.27;;;1.10;;
63110;SDS011;49201;53.426;10.300;2023-04-03T15:00:07;2.70;;;1.03;;
63110;SDS011;49201;53.426;10.300;2023-04-03T15:02:37;3.73;;;1.20;;
63110;SDS011;49201;53.426;10.300;2023-04-03T15:05:05;3.50;;;1.00;;
63110;SDS011;49201;53.426;10.300;2023-04-03T15:07:35;2.83;;;1.23;;
63110;SDS011;49201;53.426;10.300;2023-04-03T15:10:26;2.27;;;0.90;;
63110;SDS011;49201;53.426;10.300;2023-04-03T15:12:53;1.63;;;0.87;;
63110;SDS011;49201;53.426;10.300;2023-04-03T15:15:21;2.87;;;1.00;;
63110;SDS011;49201;53.426;10.300;2023-04-03T15:17:55;3.40;;;1.17;;
63110;SDS011;49201;53.426;10.300;2023-04-03T15:20:25;2.10;;;1.07;;
63110;SDS011;49201;53.426;10.300;2023-04-03T15:22:52;3.17;;;1.23;;
63110;SDS011;49201;53.426;10.300;2023-04-03T15:25:21;1.60;;;1.27;;
63110;SDS011;49201;53.426;10.300;2023-04-03T15:27:46;3.03;;;1.20;;
63110;SDS011;49201;53.426;10.300;2023-04-03T15:30:16;1.50;;;0.90;;
63110;SDS011;49201;53.426;10.300;2023-04-03T15:32:44;2.87;;;1.20;;
63110;SDS011;49201;53.426;10.300;2023-04-03T15:35:10;2.73;;;1.43;;
63110;SDS011;49201;53.426;10.300;2023-04-03T15:37:36;2.53;;;0.80;;
63110;SDS011;49201;53.426;10.300;2023-04-03T15:40:03;2.83;;;1.20;;
63110;SDS011;49201;53.426;10.300;2023-04-03T15:42:29;3.37;;;1.20;;
63110;SDS011;49201;53.426;10.300;2023-04-03T15:44:55;2.17;;;1.10;;
63110;SDS011;49201;53.426;10.300;2023-04-03T15:47:20;1.37;;;0.73;;
63110;SDS011;49201;53.426;10.300;2023-04-03T15:49:46;2.53;;;1.40;;
63110;SDS011;49201;53.426;10.300;2023-04-03T15:52:11;2.47;;;1.00;;
63110;SDS011;49201;53.426;10.300;2023-04-03T15:54:37;3.23;;;1.23;;
63110;SDS011;49201;53.426;10.300;2023-04-03T15:57:02;1.63;;;1.20;;
63110;SDS011;49201;53.426;10.300;2023-04-03T15:59:28;3.00;;;1.17;;
63110;SDS011;49201;53.426;10.300;2023-04-03T16:01:55;3.00;;;0.90;;
63110;SDS011;49201;53.426;10.300;2023-04-03T16:04:21;1.50;;;0.97;;
63110;SDS011;49201;53.426;10.300;2023-04-03T16:06:47;5.17;;;1.30;;
63110;SDS011;49201;53.426;10.300;2023-04-03T16:09:13;2.43;;;1.00;;
63110;SDS011;49201;53.426;10.300;2023-04-03T16:11:38;2.90;;;1.20;;
63110;SDS011;49201;53.426;10.300;2023-04-03T16:14:05;3.40;;;0.93;;
63110;SDS011;49201;53.426;10.300;2023-04-03T16:16:31;2.90;;;1.00;;
63110;SDS011;49201;53.426;10.300;2023-04-03T16:18:57;2.30;;;1.20;;
63110;SDS011;49201;53.426;10.300;2023-04-03T16:21:23;4.37;;;1.10;;
63110;SDS011;49201;53.426;10.300;2023-04-03T16:23:49;2.27;;;1.20;;
63110;SDS011;49201;53.426;10.300;2023-04-03T16:26:15;4.07;;;1.13;;
63110;SDS011;49201;53.426;10.300;2023-04-03T16:28:42;2.53;;;1.10;;
63110;SDS011;49201;53.426;10.300;2023-04-03T16:31:08;2.20;;;1.10;;
63110;SDS011;49201;53.426;10.300;2023-04-03T16:33:34;2.07;;;1.07;;
63110;SDS011;49201;53.426;10.300;2023-04-03T16:36:00;2.50;;;1.23;;
63110;SDS011;49201;53.426;10.300;2023-04-03T16:38:26;3.83;;;1.50;;
63110;SDS011;49201;53.426;10.300;2023-04-03T16:40:52;3.40;;;1.20;;
63110;SDS011;49201;53.426;10.300;2023-04-03T16:43:21;2.10;;;1.10;;
63110;SDS011;49201;53.426;10.300;2023-04-03T16:45:47;3.30;;;1.07;;
63110;SDS011;49201;53.426;10.300;2023-04-03T16:48:12;4.00;;;1.20;;